Time;durP1;ratioP1;P1;durP2;ratioP2;P2;SDS_P1;SDS_P2;PMS_P1;PMS_P2;Temp;Humidity;BMP_temperature;BMP_pressure;BME280_temperature;BME280_humidity;BME280_pressure;Samples;Min_cycle;Max_cycle;Signal;HPM_P1;HPM_P2
2022/01/03 00:00:37;;;;;;;;;;;;;;;1.25;70.93;95176.09;5007091;28;19998;-66
2022/01/03 00:03:02;;;;;;;;;;;;;;;1.44;70.27;95180.63;4989964;28;20466;-65
2022/01/03 00:05:28;;;;;;;;;;;;;;;1.68;69.32;95168.16;5007262;28;20008;-66
2022/01/03 00:07:53;;;;;;;;;;;;;;;1.47;70.00;95190.03;5007541;28;19993;-66
2022/01/03 00:10:18;;;;;;;;;;;;;;;1.05;71.60;95201.38;5007746;28;20024;-65
2022/01/03 00:12:44;;;;;;;;;;;;;;;0.97;71.46;95186.28;4989521;28;20389;-65
2022/01/03 00:15:10;;;;;;;;;;;;;;;1.04;71.61;95202.34;5006557;28;20433;-65
2022/01/03 00:17:35;;;;;;;;;;;;;;;1.06;70.54;95203.88;5007498;28;20323;-65
2022/01/03 00:20:01;;;;;;;;;;;;;;;0.62;71.82;95205.78;5006629;28;20043;-65
2022/01/03 00:22:26;;;;;;;;;;;;;;;0.77;71.40;95222.88;5007198;28;20344;-65
2022/01/03 00:24:59;;;;;;;;;;;;;;;1.02;70.60;95207.72;4988463;28;20052;-65
2022/01/03 00:27:24;;;;;;;;;;;;;;;0.93;71.00;95213.72;5006870;28;20000;-66
2022/01/03 00:29:50;;;;;;;;;;;;;;;0.97;69.44;95238.72;4989780;28;19970;-66
2022/01/03 00:32:15;;;;;;;;;;;;;;;0.98;70.43;95225.50;4988889;28;20048;-65
2022/01/03 00:34:40;;;;;;;;;;;;;;;1.15;69.64;95252.09;4988987;28;20044;-65
2022/01/03 00:37:06;;;;;;;;;;;;;;;0.70;71.00;95240.03;5005006;28;19980;-65
2022/01/03 00:39:31;;;;;;;;;;;;;;;0.92;70.60;95222.56;5005640;28;19997;-65
2022/01/03 00:41:58;;;;;;;;;;;;;;;0.88;70.23;95279.63;5020890;28;20588;-65
2022/01/03 00:44:23;;;;;;;;;;;;;;;1.16;70.02;95245.06;5005760;28;19998;-65
2022/01/03 00:46:49;;;;;;;;;;;;;;;1.43;67.79;95236.66;5005655;28;20012;-65
2022/01/03 00:49:14;;;;;;;;;;;;;;;1.25;69.24;95239.03;5006120;28;20199;-65
2022/01/03 00:51:39;;;;;;;;;;;;;;;1.33;68.79;95252.34;5005994;28;19993;-66
2022/01/03 00:54:04;;;;;;;;;;;;;;;1.29;68.75;95232.56;5006216;28;20314;-65
2022/01/03 00:56:37;;;;;;;;;;;;;;;1.44;70.00;95255.88;5005451;28;20527;-65
2022/01/03 00:59:15;;;;;;;;;;;;;;;1.42;70.90;95245.50;5002251;28;20402;-65
2022/01/03 01:01:47;;;;;;;;;;;;;;;1.00;71.93;95246.34;4986346;28;19981;-65
2022/01/03 01:04:12;;;;;;;;;;;;;;;0.46;73.63;95248.94;5003749;28;19993;-65
2022/01/03 01:06:38;;;;;;;;;;;;;;;0.61;72.92;95251.28;5005360;28;20346;-66
2022/01/03 01:09:04;;;;;;;;;;;;;;;0.42;72.52;95242.28;5005756;28;20075;-65
2022/01/03 01:11:29;;;;;;;;;;;;;;;0.47;73.58;95261.06;5005202;28;19994;-66
2022/01/03 01:13:55;;;;;;;;;;;;;;;0.37;73.86;95268.84;5005749;28;20347;-65
2022/01/03 01:16:20;;;;;;;;;;;;;;;0.63;73.11;95254.59;4987633;28;20024;-66
2022/01/03 01:18:45;;;;;;;;;;;;;;;0.41;75.05;95254.53;5005267;28;19974;-66
2022/01/03 01:21:11;;;;;;;;;;;;;;;0.42;76.66;95251.00;5006227;28;20456;-66
2022/01/03 01:23:40;;;;;;;;;;;;;;;0.22;77.39;95252.56;5005739;28;20065;-66
2022/01/03 01:28:49;;;;;;;;;;;;;;;0.25;78.18;95269.81;5006571;28;20051;-65
2022/01/03 01:31:16;;;;;;;;;;;;;;;0.02;79.05;95275.09;5006294;28;20139;-66
2022/01/03 01:33:41;;;;;;;;;;;;;;;0.28;77.93;95273.03;4988602;28;19966;-66
2022/01/03 01:36:06;;;;;;;;;;;;;;;0.76;76.61;95263.13;5005829;28;20592;-66
2022/01/03 01:38:33;;;;;;;;;;;;;;;0.94;74.30;95273.91;4987021;28;20084;-66
2022/01/03 01:40:58;;;;;;;;;;;;;;;1.07;74.11;95278.97;5004332;28;20561;-65
2022/01/03 01:43:25;;;;;;;;;;;;;;;1.05;74.07;95267.75;5003585;28;20080;-65
2022/01/03 01:45:50;;;;;;;;;;;;;;;0.67;74.10;95248.16;4987233;28;20065;-66
2022/01/03 01:48:15;;;;;;;;;;;;;;;0.51;76.31;95269.53;4985789;28;20089;-66
2022/01/03 01:50:43;;;;;;;;;;;;;;;0.98;73.89;95258.75;5004052;28;19977;-66
2022/01/03 01:53:09;;;;;;;;;;;;;;;1.02;73.43;95259.34;5004541;28;19966;-65
2022/01/03 01:55:35;;;;;;;;;;;;;;;1.22;72.78;95252.41;5004403;28;20358;-66
2022/01/03 01:58:00;;;;;;;;;;;;;;;1.15;73.49;95243.38;4986348;28;19986;-66
2022/01/03 02:00:26;;;;;;;;;;;;;;;1.56;72.00;95249.59;5003977;28;19993;-66
2022/01/03 02:02:54;;;;;;;;;;;;;;;1.35;71.28;95263.56;5004451;28;20240;-66
2022/01/03 02:05:20;;;;;;;;;;;;;;;1.18;73.00;95257.09;5003875;28;20001;-66
2022/01/03 02:07:55;;;;;;;;;;;;;;;1.34;72.12;95253.19;5003580;28;19989;-66
2022/01/03 02:10:24;;;;;;;;;;;;;;;0.85;72.84;95277.25;5004021;28;20006;-66
2022/01/03 02:12:49;;;;;;;;;;;;;;;0.76;73.70;95267.53;5003917;28;20354;-66
2022/01/03 02:15:15;;;;;;;;;;;;;;;0.53;74.83;95270.22;5003293;28;20004;-66
2022/01/03 02:17:44;;;;;;;;;;;;;;;0.45;74.36;95273.47;4986305;28;20241;-66
2022/01/03 02:20:13;;;;;;;;;;;;;;;0.60;73.97;95276.66;5003518;28;20044;-66
2022/01/03 02:22:38;;;;;;;;;;;;;;;0.66;73.33;95256.97;5003750;28;20017;-65
2022/01/03 02:25:04;;;;;;;;;;;;;;;0.63;73.24;95275.56;5019040;28;20109;-66
2022/01/03 02:27:30;;;;;;;;;;;;;;;0.56;73.94;95277.84;4985981;28;19997;-65
2022/01/03 02:29:55;;;;;;;;;;;;;;;1.06;72.42;95274.66;4984498;28;20398;-65
2022/01/03 02:32:21;;;;;;;;;;;;;;;0.92;72.27;95275.00;5003260;28;20001;-66
2022/01/03 02:34:47;;;;;;;;;;;;;;;1.06;71.20;95276.47;5003213;28;19989;-65
2022/01/03 02:37:12;;;;;;;;;;;;;;;1.21;71.00;95276.97;5003753;28;20020;-65
2022/01/03 02:39:37;;;;;;;;;;;;;;;0.76;72.10;95272.78;5002828;28;19993;-66
2022/01/03 02:42:03;;;;;;;;;;;;;;;0.74;72.04;95267.66;4985905;28;20454;-66
2022/01/03 02:44:28;;;;;;;;;;;;;;;0.69;72.88;95280.31;5003223;28;20340;-66
2022/01/03 02:46:53;;;;;;;;;;;;;;;1.00;71.18;95283.06;4985142;28;20292;-65
2022/01/03 02:49:18;;;;;;;;;;;;;;;0.98;71.36;95279.72;5003621;28;19970;-66
2022/01/03 02:51:44;;;;;;;;;;;;;;;0.91;71.73;95287.25;5004126;28;20375;-65
2022/01/03 02:54:09;;;;;;;;;;;;;;;0.59;72.14;95275.81;5004007;28;19994;-66
2022/01/03 02:56:35;;;;;;;;;;;;;;;0.64;72.49;95278.06;5004471;28;19994;-66
2022/01/03 02:59:00;;;;;;;;;;;;;;;0.93;71.59;95287.13;5004598;28;19986;-66
2022/01/03 03:01:25;;;;;;;;;;;;;;;1.08;71.13;95288.50;5008313;28;20020;-66
2022/01/03 03:03:50;;;;;;;;;;;;;;;0.67;72.57;95280.44;5008048;28;19998;-65
2022/01/03 03:06:16;;;;;;;;;;;;;;;0.62;73.09;95289.63;5008480;28;20020;-63
2022/01/03 03:08:41;;;;;;;;;;;;;;;0.94;71.69;95276.53;5008340;28;20001;-65
2022/01/03 03:11:07;;;;;;;;;;;;;;;0.98;71.92;95285.81;4990597;28;19990;-65
2022/01/03 03:13:32;;;;;;;;;;;;;;;1.24;70.53;95279.34;5008450;28;20584;-65
2022/01/03 03:15:58;;;;;;;;;;;;;;;0.87;72.23;95280.59;5007497;28;19985;-65
2022/01/03 03:18:24;;;;;;;;;;;;;;;0.48;74.41;95288.94;5008047;28;19981;-65
2022/01/03 03:20:49;;;;;;;;;;;;;;;0.34;76.06;95285.63;5007996;28;19985;-65
2022/01/03 03:23:14;;;;;;;;;;;;;;;0.46;75.25;95302.19;5008348;28;20366;-66
2022/01/03 03:25:40;;;;;;;;;;;;;;;0.65;75.77;95297.25;4991254;28;20446;-65
2022/01/03 03:28:06;;;;;;;;;;;;;;;0.54;75.06;95285.81;5007522;28;19990;-66
2022/01/03 03:30:39;;;;;;;;;;;;;;;0.59;74.72;95288.09;5007556;28;19977;-66
2022/01/03 03:33:08;;;;;;;;;;;;;;;0.65;74.92;95284.16;5007310;28;20471;-66
2022/01/03 03:35:33;;;;;;;;;;;;;;;0.87;73.61;95287.63;5007361;28;20585;-66
2022/01/03 03:37:58;;;;;;;;;;;;;;;1.39;72.05;95281.66;5007654;28;19976;-66
2022/01/03 03:40:23;;;;;;;;;;;;;;;1.19;72.39;95284.16;5007151;28;19989;-66
2022/01/03 03:42:49;;;;;;;;;;;;;;;1.33;71.30;95289.06;5007471;28;19974;-66
2022/01/03 03:45:14;;;;;;;;;;;;;;;0.91;72.05;95294.28;5007826;28;20419;-65
2022/01/03 03:47:40;;;;;;;;;;;;;;;0.88;71.39;95292.75;5021904;28;20091;-66
2022/01/03 03:50:05;;;;;;;;;;;;;;;1.02;71.65;95293.41;5006889;28;19966;-66
2022/01/03 03:52:30;;;;;;;;;;;;;;;1.00;71.33;95290.91;5022557;28;20064;-65
2022/01/03 03:54:55;;;;;;;;;;;;;;;0.98;71.09;95291.03;5006878;28;20040;-66
2022/01/03 03:57:21;;;;;;;;;;;;;;;1.11;69.83;95306.59;4989781;28;20036;-66
2022/01/03 03:59:46;;;;;;;;;;;;;;;1.21;69.74;95287.47;5006953;28;19995;-66
2022/01/03 04:02:11;;;;;;;;;;;;;;;1.41;69.01;95279.72;5007861;28;19962;-66
2022/01/03 04:04:36;;;;;;;;;;;;;;;1.57;67.37;95289.81;5006626;28;20238;-66
2022/01/03 04:07:02;;;;;;;;;;;;;;;1.31;68.17;95285.75;5007149;28;20478;-66
2022/01/03 04:09:27;;;;;;;;;;;;;;;1.60;67.54;95300.06;5007299;28;20073;-65
2022/01/03 04:11:52;;;;;;;;;;;;;;;1.92;66.38;95290.38;4988715;28;20085;-66
2022/01/03 04:14:18;;;;;;;;;;;;;;;2.07;64.82;95291.69;5006768;28;20451;-66
2022/01/03 04:16:43;;;;;;;;;;;;;;;2.19;65.08;95283.72;5007457;28;20401;-66
2022/01/03 04:19:08;;;;;;;;;;;;;;;2.27;63.89;95286.50;4989297;28;20055;-66
2022/01/03 04:21:33;;;;;;;;;;;;;;;2.16;64.22;95299.72;5007642;28;20439;-65
2022/01/03 04:23:59;;;;;;;;;;;;;;;1.92;64.04;95293.00;5006514;28;20040;-66
2022/01/03 04:26:24;;;;;;;;;;;;;;;2.00;64.58;95288.75;5006849;28;20333;-66
2022/01/03 04:28:49;;;;;;;;;;;;;;;2.26;63.13;95292.72;5006469;28;19993;-66
2022/01/03 04:31:15;;;;;;;;;;;;;;;2.18;63.79;95295.19;5006566;28;20025;-66
2022/01/03 04:33:40;;;;;;;;;;;;;;;1.90;63.78;95290.50;5006633;28;20072;-66
2022/01/03 04:36:06;;;;;;;;;;;;;;;2.21;63.41;95287.03;4988734;28;19986;-66
2022/01/03 04:38:32;;;;;;;;;;;;;;;2.20;63.55;95282.72;5007002;28;19974;-66
2022/01/03 04:40:58;;;;;;;;;;;;;;;1.93;63.80;95294.66;5007068;28;20092;-66
2022/01/03 04:43:23;;;;;;;;;;;;;;;2.20;63.89;95290.63;5006255;28;20093;-65
2022/01/03 04:45:49;;;;;;;;;;;;;;;2.31;63.06;95287.88;5006736;28;20479;-66
2022/01/03 04:48:14;;;;;;;;;;;;;;;2.77;61.12;95276.91;5001542;28;20097;-66
2022/01/03 04:50:40;;;;;;;;;;;;;;;2.63;62.56;95286.03;5005910;28;19980;-66
2022/01/03 04:53:05;;;;;;;;;;;;;;;2.06;63.14;95279.53;5021923;28;20038;-66
2022/01/03 04:55:30;;;;;;;;;;;;;;;2.02;64.26;95286.00;5006685;28;20182;-69
2022/01/03 04:57:55;;;;;;;;;;;;;;;1.56;64.64;95291.59;5007025;28;19992;-66
2022/01/03 05:00:21;;;;;;;;;;;;;;;1.87;63.96;95315.22;5005935;28;20033;-66
2022/01/03 05:02:46;;;;;;;;;;;;;;;2.12;63.34;95272.91;5006149;28;19970;-66
2022/01/03 05:05:11;;;;;;;;;;;;;;;1.81;64.18;95286.06;4989117;28;19998;-66
2022/01/03 05:07:37;;;;;;;;;;;;;;;1.67;64.03;95287.22;5006755;28;20023;-66
2022/01/03 05:10:02;;;;;;;;;;;;;;;1.81;63.60;95271.13;5006691;28;19985;-65
2022/01/03 05:12:27;;;;;;;;;;;;;;;1.71;64.21;95288.63;4988525;28;19994;-66
2022/01/03 05:14:53;;;;;;;;;;;;;;;1.07;65.56;95283.38;5006167;28;19989;-66
2022/01/03 05:17:18;;;;;;;;;;;;;;;1.34;65.20;95282.03;5006613;28;19984;-66
2022/01/03 05:19:43;;;;;;;;;;;;;;;0.85;66.04;95279.88;5006121;28;20036;-66
2022/01/03 05:22:08;;;;;;;;;;;;;;;1.05;65.76;95280.88;5005633;28;19980;-66
2022/01/03 05:24:34;;;;;;;;;;;;;;;1.52;63.35;95279.66;5006058;28;19994;-66
2022/01/03 05:27:00;;;;;;;;;;;;;;;1.42;64.63;95284.00;5005877;28;20025;-65
2022/01/03 05:29:25;;;;;;;;;;;;;;;1.44;63.15;95274.22;5006589;28;20584;-66
2022/01/03 05:31:51;;;;;;;;;;;;;;;1.42;63.71;95266.47;5006253;28;20036;-66
2022/01/03 05:34:16;;;;;;;;;;;;;;;1.70;62.56;95279.09;5006698;28;20008;-66
2022/01/03 05:36:41;;;;;;;;;;;;;;;1.93;62.59;95263.16;5005846;28;20042;-66
2022/01/03 05:39:06;;;;;;;;;;;;;;;1.94;62.18;95270.09;5006200;28;19992;-66
2022/01/03 05:41:32;;;;;;;;;;;;;;;2.27;61.06;95270.72;5006114;28;20016;-66
2022/01/03 05:43:58;;;;;;;;;;;;;;;2.10;61.61;95273.03;5006291;28;20677;-66
2022/01/03 05:46:23;;;;;;;;;;;;;;;2.36;61.20;95269.94;5005867;28;20566;-66
2022/01/03 05:48:48;;;;;;;;;;;;;;;2.27;60.52;95275.97;4988616;28;20040;-66
2022/01/03 05:51:13;;;;;;;;;;;;;;;2.24;60.94;95278.88;5005510;28;19994;-65
2022/01/03 05:53:39;;;;;;;;;;;;;;;2.06;61.03;95283.94;5006484;28;19966;-66
2022/01/03 05:56:04;;;;;;;;;;;;;;;2.09;61.46;95304.69;5005987;28;19994;-66
2022/01/03 05:58:29;;;;;;;;;;;;;;;1.93;61.88;95282.38;5005850;28;19989;-66
2022/01/03 06:00:54;;;;;;;;;;;;;;;2.20;61.23;95306.38;5005467;28;20087;-67
2022/01/03 06:03:22;;;;;;;;;;;;;;;2.38;60.71;95291.63;5004849;28;19998;-67
2022/01/03 06:06:16;;;;;;;;;;;;;;;2.30;60.61;95304.63;5003841;28;20033;-67
2022/01/03 06:08:38;;;;;;;;;;;;;;;1.88;61.89;95290.63;5004753;28;20038;-67
2022/01/03 06:11:04;;;;;;;;;;;;;;;1.89;62.01;95283.59;5004743;28;20001;-67
2022/01/03 06:13:29;;;;;;;;;;;;;;;1.67;62.52;95274.13;5006108;28;19966;-67
2022/01/03 06:15:54;;;;;;;;;;;;;;;2.05;60.78;95284.91;5005326;28;20013;-67
2022/01/03 06:18:19;;;;;;;;;;;;;;;2.50;60.91;95267.88;4988144;28;19977;-67
2022/01/03 06:20:45;;;;;;;;;;;;;;;2.76;59.35;95265.53;4987223;28;20011;-68
2022/01/03 06:23:11;;;;;;;;;;;;;;;2.38;60.32;95267.16;5004059;28;20060;-67
2022/01/03 06:25:36;;;;;;;;;;;;;;;2.58;60.34;95252.25;5005630;28;20457;-67
2022/01/03 06:28:06;;;;;;;;;;;;;;;2.76;59.84;95248.97;5004544;28;19996;-67
2022/01/03 06:30:32;;;;;;;;;;;;;;;3.20;58.76;95252.94;5004914;28;20008;-67
2022/01/03 06:32:57;;;;;;;;;;;;;;;3.13;57.79;95242.16;5005499;28;20417;-67
2022/01/03 06:35:22;;;;;;;;;;;;;;;3.05;57.85;95248.09;5008581;28;20012;-67
2022/01/03 06:37:47;;;;;;;;;;;;;;;2.64;59.88;95256.97;5009048;28;20011;-67
2022/01/03 06:40:13;;;;;;;;;;;;;;;2.61;59.40;95246.72;5020525;28;19998;-67
2022/01/03 06:42:38;;;;;;;;;;;;;;;2.64;59.76;95250.88;4991152;28;19965;-67
2022/01/03 06:45:03;;;;;;;;;;;;;;;3.08;58.21;95242.56;5008868;28;19970;-67
2022/01/03 06:47:28;;;;;;;;;;;;;;;2.95;58.65;95249.91;5009025;28;20664;-67
2022/01/03 06:49:54;;;;;;;;;;;;;;;2.51;59.08;95245.88;5008989;28;19970;-68
2022/01/03 06:52:19;;;;;;;;;;;;;;;3.08;58.18;95252.25;5007894;28;20454;-68
2022/01/03 06:54:44;;;;;;;;;;;;;;;3.25;58.85;95251.56;5008649;28;20036;-68
2022/01/03 06:57:09;;;;;;;;;;;;;;;2.67;60.17;95250.59;4991195;28;20450;-68
2022/01/03 06:59:35;;;;;;;;;;;;;;;3.45;57.92;95250.72;5008195;28;20008;-69
2022/01/03 07:02:00;;;;;;;;;;;;;;;3.45;58.18;95250.72;5008300;28;19977;-68
2022/01/03 07:04:25;;;;;;;;;;;;;;;3.54;57.92;95248.03;5007843;28;20001;-68
2022/01/03 07:06:51;;;;;;;;;;;;;;;3.28;57.65;95253.91;5011241;28;20357;-68
2022/01/03 07:09:16;;;;;;;;;;;;;;;3.01;59.51;95237.06;5007824;28;19969;-68
2022/01/03 07:11:41;;;;;;;;;;;;;;;2.78;60.13;95247.00;5000373;28;20040;-68
2022/01/03 07:19:30;;;;;;;;;;;;;;;2.69;60.01;95245.22;5014856;28;20339;-67
2022/01/03 07:21:56;;;;;;;;;;;;;;;3.38;58.43;95248.63;5003881;28;20507;-68
2022/01/03 07:24:21;;;;;;;;;;;;;;;2.75;59.98;95253.38;5002476;28;20021;-68
2022/01/03 07:26:46;;;;;;;;;;;;;;;2.84;60.05;95258.78;5004172;28;20016;-68
2022/01/03 07:29:11;;;;;;;;;;;;;;;3.06;60.00;95243.69;5003688;28;20032;-67
2022/01/03 07:31:37;;;;;;;;;;;;;;;2.59;61.18;95261.78;5012685;28;20029;-67
2022/01/03 07:34:02;;;;;;;;;;;;;;;2.93;60.03;95270.25;5001924;28;20040;-68
2022/01/03 07:36:28;;;;;;;;;;;;;;;2.86;60.55;95252.41;5002822;28;20004;-68
2022/01/03 07:38:53;;;;;;;;;;;;;;;2.79;60.80;95251.28;5002628;28;20001;-68
2022/01/03 07:41:18;;;;;;;;;;;;;;;2.37;62.59;95258.47;5004153;28;20000;-68
2022/01/03 07:43:44;;;;;;;;;;;;;;;1.83;66.80;95255.22;5001277;28;20032;-67
2022/01/03 07:46:09;;;;;;;;;;;;;;;1.22;70.66;95270.78;5001649;28;19977;-68
2022/01/03 07:48:34;;;;;;;;;;;;;;;1.92;68.48;95251.00;5003095;28;19994;-68
2022/01/03 07:51:00;;;;;;;;;;;;;;;2.14;66.62;95257.84;5002219;28;20526;-67
2022/01/03 07:53:27;;;;;;;;;;;;;;;1.74;68.30;95262.13;5012248;28;20035;-68
2022/01/03 07:55:52;;;;;;;;;;;;;;;0.89;71.71;95262.94;5003976;28;20692;-68
2022/01/03 07:58:17;;;;;;;;;;;;;;;2.26;67.82;95255.94;5002733;28;20102;-68
2022/01/03 08:00:44;;;;;;;;;;;;;;;2.45;67.09;95246.44;5002261;28;20033;-69
2022/01/03 08:03:09;;;;;;;;;;;;;;;2.10;67.53;95249.41;5000905;28;20004;-66
2022/01/03 08:05:34;;;;;;;;;;;;;;;2.42;67.48;95247.53;5002376;28;19998;-67
2022/01/03 08:07:59;;;;;;;;;;;;;;;2.37;65.75;95268.97;5008251;28;20048;-65
2022/01/03 08:10:25;;;;;;;;;;;;;;;2.55;66.69;95251.72;5002814;28;19988;-66
2022/01/03 08:12:50;;;;;;;;;;;;;;;2.56;65.69;95264.72;5001213;28;20612;-66
2022/01/03 08:15:15;;;;;;;;;;;;;;;2.07;67.50;95269.84;5000439;28;20001;-66
2022/01/03 08:17:44;;;;;;;;;;;;;;;2.28;67.15;95251.38;5002096;28;20467;-66
2022/01/03 08:20:09;;;;;;;;;;;;;;;2.27;65.54;95254.97;5002306;28;20040;-66
2022/01/03 08:22:35;;;;;;;;;;;;;;;1.68;67.02;95271.34;5000401;28;20457;-65
2022/01/03 08:25:00;;;;;;;;;;;;;;;2.05;67.81;95253.41;5000977;28;19994;-66
2022/01/03 08:27:25;;;;;;;;;;;;;;;2.34;66.78;95257.88;5021525;28;20024;-66
2022/01/03 08:29:50;;;;;;;;;;;;;;;2.56;65.66;95258.63;5006330;28;20415;-66
2022/01/03 08:32:15;;;;;;;;;;;;;;;2.58;65.41;95249.63;5011548;28;20041;-66
2022/01/03 08:34:41;;;;;;;;;;;;;;;3.13;64.34;95242.97;5000463;28;20037;-66
2022/01/03 08:37:06;;;;;;;;;;;;;;;2.56;65.88;95251.56;5000977;28;20009;-66
2022/01/03 08:39:31;;;;;;;;;;;;;;;2.50;65.73;95246.84;5013089;28;20102;-66
2022/01/03 08:41:57;;;;;;;;;;;;;;;3.05;64.08;95245.47;4984320;28;19973;-66
2022/01/03 08:44:22;;;;;;;;;;;;;;;3.20;64.43;95245.06;5000787;28;20000;-66
2022/01/03 08:46:49;;;;;;;;;;;;;;;2.35;67.29;95259.56;5001509;28;20582;-66
2022/01/03 08:49:14;;;;;;;;;;;;;;;2.07;68.85;95260.16;5001649;28;20225;-66
2022/01/03 08:51:39;;;;;;;;;;;;;;;2.09;69.01;95258.25;5001150;28;19998;-66
2022/01/03 08:54:05;;;;;;;;;;;;;;;1.98;69.33;95260.97;5000952;28;19980;-66
2022/01/03 08:56:30;;;;;;;;;;;;;;;2.26;67.39;95251.53;4999694;28;20180;-66
2022/01/03 08:58:55;;;;;;;;;;;;;;;2.02;69.70;95249.25;5005285;28;20012;-66
2022/01/03 09:01:20;;;;;;;;;;;;;;;2.50;68.88;95225.81;5004538;28;20073;-66
2022/01/03 09:03:50;;;;;;;;;;;;;;;2.85;66.19;95247.28;4999490;28;20472;-66
2022/01/03 09:06:15;;;;;;;;;;;;;;;1.93;68.59;95237.75;5000251;28;19998;-67
2022/01/03 09:08:40;;;;;;;;;;;;;;;2.45;67.54;95244.63;5018516;28;19999;-66
2022/01/03 09:11:05;;;;;;;;;;;;;;;2.34;68.23;95236.84;5021120;28;19989;-66
2022/01/03 09:13:31;;;;;;;;;;;;;;;2.42;68.38;95263.31;5004269;28;19982;-66
2022/01/03 09:15:56;;;;;;;;;;;;;;;1.87;69.78;95254.84;5000589;28;20417;-66
2022/01/03 09:18:22;;;;;;;;;;;;;;;2.93;67.39;95257.13;5001006;28;19978;-66
2022/01/03 09:20:47;;;;;;;;;;;;;;;2.30;68.63;95259.97;5000066;28;20035;-65
2022/01/03 09:23:17;;;;;;;;;;;;;;;2.12;68.43;95250.09;4998421;28;20033;-66
2022/01/03 09:30:52;;;;;;;;;;;;;;;2.72;66.04;95247.56;4999722;28;20039;-66
2022/01/03 09:33:17;;;;;;;;;;;;;;;2.92;66.13;95240.50;5001183;28;20052;-66
2022/01/03 09:35:43;;;;;;;;;;;;;;;2.57;66.67;95234.84;5015384;28;20326;-66
2022/01/03 09:38:08;;;;;;;;;;;;;;;1.91;68.17;95255.44;5000363;28;20083;-66
2022/01/03 09:40:34;;;;;;;;;;;;;;;2.06;68.77;95253.25;5011097;28;20128;-66
2022/01/03 09:43:00;;;;;;;;;;;;;;;2.27;68.74;95244.47;5000733;28;19996;-66
2022/01/03 09:45:26;;;;;;;;;;;;;;;2.31;67.97;95245.03;5007760;28;19974;-66
2022/01/03 09:47:51;;;;;;;;;;;;;;;1.82;69.21;95250.97;5000649;28;20540;-66
2022/01/03 09:50:20;;;;;;;;;;;;;;;2.38;66.98;95252.22;4982168;28;19982;-66
2022/01/03 09:52:46;;;;;;;;;;;;;;;2.81;65.82;95244.09;4981540;28;20455;-67
2022/01/03 09:55:11;;;;;;;;;;;;;;;2.75;65.23;95249.91;5014807;28;20004;-67
2022/01/03 09:57:36;;;;;;;;;;;;;;;2.97;65.03;95233.03;5014434;28;20101;-67
2022/01/03 10:00:02;;;;;;;;;;;;;;;2.63;65.29;95249.22;5014752;28;19996;-66
2022/01/03 10:02:27;;;;;;;;;;;;;;;2.96;64.22;95238.44;4999498;28;20013;-66
2022/01/03 10:04:52;;;;;;;;;;;;;;;2.96;64.40;95239.25;4999760;28;20120;-66
2022/01/03 10:07:19;;;;;;;;;;;;;;;2.38;66.13;95227.75;5005161;28;19994;-67
2022/01/03 10:09:45;;;;;;;;;;;;;;;2.75;65.21;95236.75;4989661;28;20626;-66
2022/01/03 10:12:10;;;;;;;;;;;;;;;2.55;66.00;95226.25;5004030;28;19993;-67
2022/01/03 10:14:36;;;;;;;;;;;;;;;3.17;64.01;95238.28;5003383;28;19994;-66
2022/01/03 10:17:01;;;;;;;;;;;;;;;3.24;63.75;95228.00;5003829;28;20070;-66
2022/01/03 10:19:26;;;;;;;;;;;;;;;3.34;63.78;95239.34;4998761;28;20000;-66
2022/01/03 10:21:52;;;;;;;;;;;;;;;3.08;64.50;95218.06;5004029;28;19974;-67
2022/01/03 10:24:17;;;;;;;;;;;;;;;3.16;65.44;95224.28;5002758;28;19994;-66
2022/01/03 10:26:50;;;;;;;;;;;;;;;3.14;64.18;95214.88;5003890;28;20115;-66
2022/01/03 10:29:20;;;;;;;;;;;;;;;3.70;63.26;95214.22;5003855;28;19977;-65
2022/01/03 10:31:46;;;;;;;;;;;;;;;4.08;61.43;95204.44;5004065;28;20430;-66
2022/01/03 10:34:12;;;;;;;;;;;;;;;4.04;62.58;95211.81;5002957;28;20485;-66
2022/01/03 10:36:38;;;;;;;;;;;;;;;3.94;61.73;95211.88;5002921;28;19994;-66
2022/01/03 10:39:23;;;;;;;;;;;;;;;3.49;62.70;95244.19;5003568;28;20055;-65
2022/01/03 10:41:49;;;;;;;;;;;;;;;3.19;63.69;95196.84;5000820;28;19982;-66
2022/01/03 10:44:34;;;;;;;;;;;;;;;3.55;63.54;95212.03;5003813;28;20109;-65
2022/01/03 10:46:59;;;;;;;;;;;;;;;3.19;65.52;95201.31;5012904;28;20389;-66
2022/01/03 10:49:24;;;;;;;;;;;;;;;3.29;63.56;95196.84;5010235;28;19969;-66
2022/01/03 10:51:50;;;;;;;;;;;;;;;3.60;63.30;95194.00;5017579;28;20413;-66
2022/01/03 10:54:17;;;;;;;;;;;;;;;3.14;64.69;95199.09;5013001;28;19989;-66
2022/01/03 10:56:47;;;;;;;;;;;;;;;3.20;64.26;95195.06;5005620;28;20009;-67
2022/01/03 10:59:15;;;;;;;;;;;;;;;3.45;64.18;95200.69;5014310;28;20096;-66
2022/01/03 11:01:52;;;;;;;;;;;;;;;3.45;62.70;95185.75;5003473;28;20311;-66
2022/01/03 11:04:27;;;;;;;;;;;;;;;3.20;63.48;95168.75;5002137;28;19989;-66
2022/01/03 11:10:43;;;;;;;;;;;;;;;3.88;60.91;95175.56;5003770;28;20462;-66
2022/01/03 11:12:48;;;;;;;;;;;;;;;3.11;63.49;95178.31;5017960;28;20587;-66
2022/01/03 11:15:20;;;;;;;;;;;;;;;2.94;63.83;95187.75;4987477;28;20632;-66
2022/01/03 11:17:45;;;;;;;;;;;;;;;3.16;63.25;95178.72;5012234;28;20514;-66
2022/01/03 11:20:10;;;;;;;;;;;;;;;2.72;64.40;95161.63;5005703;28;20001;-67
2022/01/03 11:22:39;;;;;;;;;;;;;;;2.43;64.98;95165.13;4992191;28;19974;-65
2022/01/03 11:25:06;;;;;;;;;;;;;;;2.07;67.97;95152.50;5014570;28;19989;-66
2022/01/03 11:27:31;;;;;;;;;;;;;;;1.73;68.42;95150.22;4990392;28;20476;-65
2022/01/03 11:29:57;;;;;;;;;;;;;;;2.07;68.63;95142.00;5004524;28;20290;-67
2022/01/03 11:32:23;;;;;;;;;;;;;;;2.03;70.13;95137.97;5002113;28;19994;-66
2022/01/03 11:34:48;;;;;;;;;;;;;;;1.63;72.56;95173.78;4987358;28;20323;-66
2022/01/03 11:37:13;;;;;;;;;;;;;;;2.10;71.70;95156.63;5006597;28;20000;-66
2022/01/03 11:39:39;;;;;;;;;;;;;;;1.36;72.21;95159.44;5004154;28;20044;-66
2022/01/03 11:42:04;;;;;;;;;;;;;;;1.08;73.27;95159.16;5016804;28;19970;-66
2022/01/03 11:44:30;;;;;;;;;;;;;;;0.67;72.58;95169.53;4983990;28;20000;-64
2022/01/03 11:46:55;;;;;;;;;;;;;;;0.69;72.60;95144.06;5017142;28;20147;-65
2022/01/03 11:49:20;;;;;;;;;;;;;;;0.43;74.25;95176.69;5002773;28;19985;-65
2022/01/03 11:51:46;;;;;;;;;;;;;;;-0.07;76.14;95154.47;5002471;28;20076;-65
2022/01/03 11:54:14;;;;;;;;;;;;;;;-0.12;78.18;95155.78;4987701;28;20469;-66
2022/01/03 11:56:44;;;;;;;;;;;;;;;0.46;75.49;95133.69;5001572;28;20405;-66
2022/01/03 12:04:36;;;;;;;;;;;;;;;-0.01;76.45;95131.34;4984487;28;20004;-66
2022/01/03 12:07:05;;;;;;;;;;;;;;;-0.11;74.53;95136.50;5003980;28;20012;-65
2022/01/03 12:09:30;;;;;;;;;;;;;;;0.18;74.16;95125.47;5001740;28;19972;-66
2022/01/03 12:11:56;;;;;;;;;;;;;;;0.55;72.14;95111.16;5012554;28;19996;-66
2022/01/03 12:14:22;;;;;;;;;;;;;;;0.59;73.98;95128.25;5001071;28;20370;-65
2022/01/03 12:16:50;;;;;;;;;;;;;;;0.16;75.44;95125.59;5001532;28;19994;-65
2022/01/03 12:19:21;;;;;;;;;;;;;;;0.48;74.29;95129.13;5001842;28;19993;-66
2022/01/03 12:21:55;;;;;;;;;;;;;;;0.42;75.35;95125.25;5008785;28;20442;-65
2022/01/03 12:24:27;;;;;;;;;;;;;;;0.43;74.84;95120.84;4999351;28;20020;-65
2022/01/03 12:27:12;;;;;;;;;;;;;;;0.86;74.35;95105.94;5000578;28;20123;-65
2022/01/03 12:29:56;;;;;;;;;;;;;;;1.57;71.66;95112.19;4993113;28;19966;-66
2022/01/03 12:32:23;;;;;;;;;;;;;;;1.37;71.26;95103.41;5000122;28;20022;-67
2022/01/03 12:35:06;;;;;;;;;;;;;;;1.73;70.88;95098.56;5004558;28;20378;-65
2022/01/03 12:37:32;;;;;;;;;;;;;;;1.98;70.73;95108.69;5001258;28;20416;-65
2022/01/03 12:40:02;;;;;;;;;;;;;;;2.16;69.55;95105.38;5009359;28;20502;-66
2022/01/03 12:42:51;;;;;;;;;;;;;;;2.40;67.47;95104.94;5000814;28;20088;-66
2022/01/03 12:45:25;;;;;;;;;;;;;;;1.91;69.61;95097.91;5012790;28;20489;-65
2022/01/03 12:47:51;;;;;;;;;;;;;;;2.11;69.60;95092.66;5011574;28;20545;-65
2022/01/03 12:50:25;;;;;;;;;;;;;;;2.64;68.10;95090.53;4983562;28;20079;-65
2022/01/03 12:52:51;;;;;;;;;;;;;;;2.43;68.20;95080.19;5000692;28;20418;-65
2022/01/03 12:55:35;;;;;;;;;;;;;;;1.88;68.20;95080.59;4999897;28;20116;-66
2022/01/03 12:58:00;;;;;;;;;;;;;;;2.10;68.93;95086.56;5001343;28;20089;-65
2022/01/03 13:00:42;;;;;;;;;;;;;;;2.08;68.81;95082.44;5000575;28;19990;-65
2022/01/03 13:03:20;;;;;;;;;;;;;;;1.85;69.82;95072.19;5014028;28;19998;-66
2022/01/03 13:06:04;;;;;;;;;;;;;;;1.61;69.94;95073.41;4973617;28;20028;-66
2022/01/03 13:08:30;;;;;;;;;;;;;;;1.41;70.52;95059.34;5000967;28;20478;-65
2022/01/03 13:11:01;;;;;;;;;;;;;;;1.79;70.46;95062.22;5000442;28;20076;-65
2022/01/03 13:13:30;;;;;;;;;;;;;;;1.98;69.75;95061.41;5013809;28;20206;-65
2022/01/03 13:15:58;;;;;;;;;;;;;;;2.38;68.37;95059.59;5010275;28;20108;-64